sensor_id;sensor_type;location;lat;lon;timestamp;pressure;altitude;pressure_sealevel;temperature;humidity
19884;BME280;10104;50.732;10.174;2023-05-07T00:00:20;97947.25;;;17.55;71.15
19884;BME280;10104;50.732;10.174;2023-05-07T00:02:41;97956.03;;;17.62;71.03
19884;BME280;10104;50.732;10.174;2023-05-07T00:05:03;97955.81;;;17.63;70.22
19884;BME280;10104;50.732;10.174;2023-05-07T00:07:25;97954.25;;;17.56;71.31
19884;BME280;10104;50.732;10.174;2023-05-07T00:09:46;97959.75;;;17.61;70.02
19884;BME280;10104;50.732;10.174;2023-05-07T00:12:08;97953.97;;;17.64;69.67
19884;BME280;10104;50.732;10.174;2023-05-07T00:14:30;97954.25;;;17.56;71.54
19884;BME280;10104;50.732;10.174;2023-05-07T00:16:52;97960.09;;;17.53;71.72
19884;BME280;10104;50.732;10.174;2023-05-07T00:19:14;97953.44;;;17.55;71.80
19884;BME280;10104;50.732;10.174;2023-05-07T00:21:35;97959.56;;;17.32;73.47
19884;BME280;10104;50.732;10.174;2023-05-07T00:23:57;97950.81;;;17.25;74.41
19884;BME280;10104;50.732;10.174;2023-05-07T00:26:18;97960.50;;;17.26;74.04
19884;BME280;10104;50.732;10.174;2023-05-07T00:28:40;97962.44;;;17.19;74.53
19884;BME280;10104;50.732;10.174;2023-05-07T00:31:02;97961.91;;;16.99;76.78
19884;BME280;10104;50.732;10.174;2023-05-07T00:33:23;97952.25;;;16.98;77.07
19884;BME280;10104;50.732;10.174;2023-05-07T00:35:45;97955.06;;;17.03;76.03
19884;BME280;10104;50.732;10.174;2023-05-07T00:38:06;97956.25;;;17.07;74.46
19884;BME280;10104;50.732;10.174;2023-05-07T00:40:28;97954.50;;;17.13;73.65
19884;BME280;10104;50.732;10.174;2023-05-07T00:42:49;97963.69;;;17.17;73.07
19884;BME280;10104;50.732;10.174;2023-05-07T00:45:11;97965.94;;;17.20;72.72
19884;BME280;10104;50.732;10.174;2023-05-07T00:47:33;97965.28;;;16.94;77.47
19884;BME280;10104;50.732;10.174;2023-05-07T00:49:54;97959.00;;;16.71;79.36
19884;BME280;10104;50.732;10.174;2023-05-07T00:52:17;97962.41;;;16.78;77.94
19884;BME280;10104;50.732;10.174;2023-05-07T00:54:40;97957.47;;;16.93;76.29
19884;BME280;10104;50.732;10.174;2023-05-07T00:57:02;97956.94;;;17.03;75.83
19884;BME280;10104;50.732;10.174;2023-05-07T00:59:25;97949.03;;;17.08;75.02
19884;BME280;10104;50.732;10.174;2023-05-07T01:01:46;97942.88;;;17.07;74.63
19884;BME280;10104;50.732;10.174;2023-05-07T01:04:08;97945.31;;;17.09;74.50
19884;BME280;10104;50.732;10.174;2023-05-07T01:06:31;97950.28;;;17.05;77.27
19884;BME280;10104;50.732;10.174;2023-05-07T01:08:54;97948.88;;;16.73;82.00
19884;BME280;10104;50.732;10.174;2023-05-07T01:11:18;97944.44;;;16.85;79.67
19884;BME280;10104;50.732;10.174;2023-05-07T01:13:41;97944.56;;;16.90;78.04
19884;BME280;10104;50.732;10.174;2023-05-07T01:16:04;97940.16;;;16.95;77.48
19884;BME280;10104;50.732;10.174;2023-05-07T01:18:25;97944.69;;;16.95;77.30
19884;BME280;10104;50.732;10.174;2023-05-07T01:20:47;97939.13;;;16.96;77.14
19884;BME280;10104;50.732;10.174;2023-05-07T01:23:10;97943.72;;;16.89;78.88
19884;BME280;10104;50.732;10.174;2023-05-07T01:25:32;97938.75;;;16.93;78.24
19884;BME280;10104;50.732;10.174;2023-05-07T01:27:54;97935.63;;;16.96;77.61
19884;BME280;10104;50.732;10.174;2023-05-07T01:30:17;97934.34;;;16.98;77.10
19884;BME280;10104;50.732;10.174;2023-05-07T01:32:50;97941.44;;;17.05;76.77
19884;BME280;10104;50.732;10.174;2023-05-07T01:35:18;97944.50;;;17.08;76.48
19884;BME280;10104;50.732;10.174;2023-05-07T01:37:41;97938.13;;;17.09;76.45
19884;BME280;10104;50.732;10.174;2023-05-07T01:40:03;97934.03;;;17.07;76.89
19884;BME280;10104;50.732;10.174;2023-05-07T01:42:26;97942.25;;;17.05;76.78
19884;BME280;10104;50.732;10.174;2023-05-07T01:44:47;97937.94;;;17.04;76.72
19884;BME280;10104;50.732;10.174;2023-05-07T01:47:09;97938.19;;;17.03;78.12
19884;BME280;10104;50.732;10.174;2023-05-07T01:49:31;97938.94;;;16.91;79.80
19884;BME280;10104;50.732;10.174;2023-05-07T01:51:53;97934.91;;;16.89;78.83
19884;BME280;10104;50.732;10.174;2023-05-07T01:54:14;97935.34;;;16.86;79.06
19884;BME280;10104;50.732;10.174;2023-05-07T01:56:36;97934.75;;;16.84;79.12
19884;BME280;10104;50.732;10.174;2023-05-07T01:58:58;97942.13;;;16.70;81.23
19884;BME280;10104;50.732;10.174;2023-05-07T02:01:19;97941.41;;;16.63;83.14
19884;BME280;10104;50.732;10.174;2023-05-07T02:03:41;97936.56;;;16.72;81.78
19884;BME280;10104;50.732;10.174;2023-05-07T02:06:03;97938.19;;;16.73;81.24
19884;BME280;10104;50.732;10.174;2023-05-07T02:08:25;97940.84;;;16.73;80.65
19884;BME280;10104;50.732;10.174;2023-05-07T02:10:46;97935.63;;;16.66;82.99
19884;BME280;10104;50.732;10.174;2023-05-07T02:13:08;97936.28;;;16.62;83.09
19884;BME280;10104;50.732;10.174;2023-05-07T02:15:29;97934.19;;;16.64;81.99
19884;BME280;10104;50.732;10.174;2023-05-07T02:17:59;97934.41;;;16.62;81.39
19884;BME280;10104;50.732;10.174;2023-05-07T02:20:21;97935.03;;;16.64;81.54
19884;BME280;10104;50.732;10.174;2023-05-07T02:22:42;97938.50;;;16.65;81.75
19884;BME280;10104;50.732;10.174;2023-05-07T02:25:04;97946.06;;;16.68;81.29
19884;BME280;10104;50.732;10.174;2023-05-07T02:27:26;97947.56;;;16.64;81.44
19884;BME280;10104;50.732;10.174;2023-05-07T02:29:47;97946.41;;;16.60;81.55
19884;BME280;10104;50.732;10.174;2023-05-07T02:32:08;97949.63;;;16.62;81.86
19884;BME280;10104;50.732;10.174;2023-05-07T02:34:30;97950.25;;;16.64;81.40
19884;BME280;10104;50.732;10.174;2023-05-07T02:36:51;97945.50;;;16.66;80.87
19884;BME280;10104;50.732;10.174;2023-05-07T02:39:13;97941.19;;;16.65;80.67
19884;BME280;10104;50.732;10.174;2023-05-07T02:41:35;97949.22;;;16.65;80.99
19884;BME280;10104;50.732;10.174;2023-05-07T02:43:56;97949.22;;;16.65;80.41
19884;BME280;10104;50.732;10.174;2023-05-07T02:46:18;97941.41;;;16.63;80.67
19884;BME280;10104;50.732;10.174;2023-05-07T02:48:39;97942.66;;;16.61;80.85
19884;BME280;10104;50.732;10.174;2023-05-07T02:51:02;97944.75;;;16.40;83.56
19884;BME280;10104;50.732;10.174;2023-05-07T02:53:24;97948.47;;;16.39;83.14
19884;BME280;10104;50.732;10.174;2023-05-07T02:55:47;97944.81;;;16.15;85.20
19884;BME280;10104;50.732;10.174;2023-05-07T02:58:08;97942.44;;;16.26;83.98
19884;BME280;10104;50.732;10.174;2023-05-07T03:00:30;97941.69;;;16.37;83.15
19884;BME280;10104;50.732;10.174;2023-05-07T03:02:51;97949.94;;;16.35;83.07
19884;BME280;10104;50.732;10.174;2023-05-07T03:05:13;97942.16;;;16.34;83.06
19884;BME280;10104;50.732;10.174;2023-05-07T03:07:36;97944.81;;;16.34;82.29
19884;BME280;10104;50.732;10.174;2023-05-07T03:09:57;97942.28;;;16.39;81.47
19884;BME280;10104;50.732;10.174;2023-05-07T03:12:19;97940.66;;;16.38;81.32
19884;BME280;10104;50.732;10.174;2023-05-07T03:14:40;97939.00;;;16.37;81.28
19884;BME280;10104;50.732;10.174;2023-05-07T03:17:02;97942.50;;;16.37;81.16
19884;BME280;10104;50.732;10.174;2023-05-07T03:19:23;97950.53;;;16.37;81.03
19884;BME280;10104;50.732;10.174;2023-05-07T03:21:45;97942.06;;;16.40;80.56
19884;BME280;10104;50.732;10.174;2023-05-07T03:24:06;97936.59;;;16.35;81.40
19884;BME280;10104;50.732;10.174;2023-05-07T03:26:28;97938.38;;;16.41;81.00
19884;BME280;10104;50.732;10.174;2023-05-07T03:28:49;97935.09;;;16.39;80.73
19884;BME280;10104;50.732;10.174;2023-05-07T03:31:11;97941.69;;;16.37;80.66
19884;BME280;10104;50.732;10.174;2023-05-07T03:33:33;97950.31;;;16.39;80.27
19884;BME280;10104;50.732;10.174;2023-05-07T03:35:56;97942.91;;;16.41;80.22
19884;BME280;10104;50.732;10.174;2023-05-07T03:38:17;97951.13;;;16.39;80.19
19884;BME280;10104;50.732;10.174;2023-05-07T03:40:39;97953.66;;;16.34;81.48
19884;BME280;10104;50.732;10.174;2023-05-07T03:43:00;97956.53;;;16.33;81.55
19884;BME280;10104;50.732;10.174;2023-05-07T03:45:22;97952.44;;;16.30;82.11
19884;BME280;10104;50.732;10.174;2023-05-07T03:47:43;97949.78;;;16.30;81.51
19884;BME280;10104;50.732;10.174;2023-05-07T03:50:05;97951.56;;;16.18;83.48
19884;BME280;10104;50.732;10.174;2023-05-07T03:52:27;97952.31;;;16.07;84.69
19884;BME280;10104;50.732;10.174;2023-05-07T03:54:48;97954.16;;;16.06;85.11
19884;BME280;10104;50.732;10.174;2023-05-07T03:57:10;97952.88;;;15.91;87.44
19884;BME280;10104;50.732;10.174;2023-05-07T03:59:31;97959.44;;;15.70;88.84
19884;BME280;10104;50.732;10.174;2023-05-07T04:01:53;97958.16;;;15.54;90.22
19884;BME280;10104;50.732;10.174;2023-05-07T04:04:15;97966.09;;;15.61;89.70
19884;BME280;10104;50.732;10.174;2023-05-07T04:06:37;97970.72;;;15.72;87.85
19884;BME280;10104;50.732;10.174;2023-05-07T04:08:58;97965.91;;;15.81;86.89
19884;BME280;10104;50.732;10.174;2023-05-07T04:11:20;97973.03;;;15.87;86.17
19884;BME280;10104;50.732;10.174;2023-05-07T04:13:41;97968.69;;;15.92;85.63
19884;BME280;10104;50.732;10.174;2023-05-07T04:16:04;97973.16;;;15.98;86.07
19884;BME280;10104;50.732;10.174;2023-05-07T04:18:26;97968.91;;;15.91;87.28
19884;BME280;10104;50.732;10.174;2023-05-07T04:20:48;97978.31;;;15.93;87.59
19884;BME280;10104;50.732;10.174;2023-05-07T04:23:10;97983.19;;;16.03;86.43
19884;BME280;10104;50.732;10.174;2023-05-07T04:25:32;97980.28;;;16.04;86.91
19884;BME280;10104;50.732;10.174;2023-05-07T04:27:54;97980.50;;;16.03;87.29
19884;BME280;10104;50.732;10.174;2023-05-07T04:30:18;97973.59;;;16.13;85.89
19884;BME280;10104;50.732;10.174;2023-05-07T04:32:40;97978.66;;;16.22;85.34
19884;BME280;10104;50.732;10.174;2023-05-07T04:35:01;97978.81;;;16.27;85.04
19884;BME280;10104;50.732;10.174;2023-05-07T04:37:23;97983.06;;;16.34;84.40
19884;BME280;10104;50.732;10.174;2023-05-07T04:39:44;97979.94;;;16.37;84.16
19884;BME280;10104;50.732;10.174;2023-05-07T04:42:06;97975.94;;;16.46;83.75
19884;BME280;10104;50.732;10.174;2023-05-07T04:44:30;97980.16;;;16.54;83.40
19884;BME280;10104;50.732;10.174;2023-05-07T04:46:52;97975.84;;;16.53;84.53
19884;BME280;10104;50.732;10.174;2023-05-07T04:49:13;97973.19;;;16.53;85.04
19884;BME280;10104;50.732;10.174;2023-05-07T04:51:35;97978.53;;;16.53;85.07
19884;BME280;10104;50.732;10.174;2023-05-07T04:53:56;97983.59;;;16.61;84.60
19884;BME280;10104;50.732;10.174;2023-05-07T04:56:18;97987.47;;;16.65;85.27
19884;BME280;10104;50.732;10.174;2023-05-07T04:58:39;97984.72;;;16.72;84.22
19884;BME280;10104;50.732;10.174;2023-05-07T05:01:01;97990.25;;;16.88;83.06
19884;BME280;10104;50.732;10.174;2023-05-07T05:03:22;97992.31;;;16.86;83.37
19884;BME280;10104;50.732;10.174;2023-05-07T05:05:44;97990.28;;;17.00;82.26
19884;BME280;10104;50.732;10.174;2023-05-07T05:08:06;97998.41;;;16.93;82.88
19884;BME280;10104;50.732;10.174;2023-05-07T05:10:27;98000.25;;;16.93;83.90
19884;BME280;10104;50.732;10.174;2023-05-07T05:12:49;98003.94;;;17.10;81.40
19884;BME280;10104;50.732;10.174;2023-05-07T05:15:11;98001.94;;;17.06;81.38
19884;BME280;10104;50.732;10.174;2023-05-07T05:17:33;98016.06;;;17.13;81.06
19884;BME280;10104;50.732;10.174;2023-05-07T05:19:57;98011.16;;;17.10;80.00
19884;BME280;10104;50.732;10.174;2023-05-07T05:22:18;98012.53;;;17.01;80.92
19884;BME280;10104;50.732;10.174;2023-05-07T05:24:40;98016.84;;;17.02;80.83
19884;BME280;10104;50.732;10.174;2023-05-07T05:27:01;98020.69;;;17.06;80.82
19884;BME280;10104;50.732;10.174;2023-05-07T05:29:23;98017.78;;;17.07;80.02
19884;BME280;10104;50.732;10.174;2023-05-07T05:31:44;98021.31;;;17.19;78.62
19884;BME280;10104;50.732;10.174;2023-05-07T05:34:06;98018.91;;;17.29;78.29
19884;BME280;10104;50.732;10.174;2023-05-07T05:36:27;98022.31;;;17.36;78.65
19884;BME280;10104;50.732;10.174;2023-05-07T05:38:49;98026.00;;;17.24;79.82
19884;BME280;10104;50.732;10.174;2023-05-07T05:41:11;98024.16;;;17.06;82.08
19884;BME280;10104;50.732;10.174;2023-05-07T05:43:32;98027.44;;;17.08;79.98
19884;BME280;10104;50.732;10.174;2023-05-07T05:45:55;98026.06;;;17.17;81.00
19884;BME280;10104;50.732;10.174;2023-05-07T05:48:17;98034.75;;;17.31;79.25
19884;BME280;10104;50.732;10.174;2023-05-07T05:50:38;98029.47;;;17.24;80.90
19884;BME280;10104;50.732;10.174;2023-05-07T05:53:00;98038.19;;;17.20;80.05
19884;BME280;10104;50.732;10.174;2023-05-07T05:55:22;98039.06;;;17.32;79.37
19884;BME280;10104;50.732;10.174;2023-05-07T05:57:43;98033.97;;;17.42;78.36
19884;BME280;10104;50.732;10.174;2023-05-07T06:00:05;98034.53;;;17.62;76.81
19884;BME280;10104;50.732;10.174;2023-05-07T06:02:27;98039.69;;;17.75;75.37
19884;BME280;10104;50.732;10.174;2023-05-07T06:04:49;98035.13;;;17.64;76.40
19884;BME280;10104;50.732;10.174;2023-05-07T06:07:11;98043.28;;;17.69;75.83
19884;BME280;10104;50.732;10.174;2023-05-07T06:09:32;98043.06;;;17.83;74.46
19884;BME280;10104;50.732;10.174;2023-05-07T06:11:54;98046.41;;;17.78;74.33
19884;BME280;10104;50.732;10.174;2023-05-07T06:14:15;98047.50;;;17.77;74.81
19884;BME280;10104;50.732;10.174;2023-05-07T06:16:37;98046.31;;;17.85;73.79
19884;BME280;10104;50.732;10.174;2023-05-07T06:18:59;98049.72;;;17.92;73.74
19884;BME280;10104;50.732;10.174;2023-05-07T06:21:21;98051.84;;;18.01;72.73
19884;BME280;10104;50.732;10.174;2023-05-07T06:23:42;98058.56;;;17.92;73.09
19884;BME280;10104;50.732;10.174;2023-05-07T06:26:03;98058.34;;;17.82;73.53
19884;BME280;10104;50.732;10.174;2023-05-07T06:28:25;98060.53;;;17.85;72.61
19884;BME280;10104;50.732;10.174;2023-05-07T06:30:46;98059.88;;;17.90;71.83
19884;BME280;10104;50.732;10.174;2023-05-07T06:33:10;98059.47;;;17.74;72.00
19884;BME280;10104;50.732;10.174;2023-05-07T06:35:32;98057.94;;;17.67;72.63
19884;BME280;10104;50.732;10.174;2023-05-07T06:37:53;98054.13;;;17.45;74.48
19884;BME280;10104;50.732;10.174;2023-05-07T06:40:14;98060.03;;;17.47;74.87
19884;BME280;10104;50.732;10.174;2023-05-07T06:42:37;98071.09;;;17.38;75.88
19884;BME280;10104;50.732;10.174;2023-05-07T06:44:59;98064.13;;;17.19;76.90
19884;BME280;10104;50.732;10.174;2023-05-07T06:47:21;98073.16;;;17.07;76.51
19884;BME280;10104;50.732;10.174;2023-05-07T06:49:42;98072.88;;;16.96;77.73
19884;BME280;10104;50.732;10.174;2023-05-07T06:52:04;98074.28;;;16.99;78.41
19884;BME280;10104;50.732;10.174;2023-05-07T06:54:25;98072.19;;;17.01;78.35
19884;BME280;10104;50.732;10.174;2023-05-07T06:56:47;98069.22;;;17.09;78.65
19884;BME280;10104;50.732;10.174;2023-05-07T06:59:08;98067.03;;;17.18;78.49
19884;BME280;10104;50.732;10.174;2023-05-07T07:01:30;98062.69;;;17.35;78.23
19884;BME280;10104;50.732;10.174;2023-05-07T07:03:51;98057.88;;;17.55;77.54
19884;BME280;10104;50.732;10.174;2023-05-07T07:06:13;98063.66;;;17.70;76.85
19884;BME280;10104;50.732;10.174;2023-05-07T07:08:34;98056.69;;;17.81;76.30
19884;BME280;10104;50.732;10.174;2023-05-07T07:10:56;98047.31;;;18.02;75.75
19884;BME280;10104;50.732;10.174;2023-05-07T07:13:17;98053.00;;;18.29;75.49
19884;BME280;10104;50.732;10.174;2023-05-07T07:15:39;98051.84;;;18.59;72.80
19884;BME280;10104;50.732;10.174;2023-05-07T07:18:01;98062.81;;;18.70;72.97
19884;BME280;10104;50.732;10.174;2023-05-07T07:20:23;98066.16;;;18.77;71.03
19884;BME280;10104;50.732;10.174;2023-05-07T07:22:44;98071.78;;;18.87;70.85
19884;BME280;10104;50.732;10.174;2023-05-07T07:25:06;98068.28;;;19.15;68.96
19884;BME280;10104;50.732;10.174;2023-05-07T07:27:28;98071.19;;;19.25;67.11
19884;BME280;10104;50.732;10.174;2023-05-07T07:29:49;98061.66;;;19.46;66.72
19884;BME280;10104;50.732;10.174;2023-05-07T07:32:10;98063.47;;;19.57;67.91
19884;BME280;10104;50.732;10.174;2023-05-07T07:34:32;98065.63;;;19.71;65.39
19884;BME280;10104;50.732;10.174;2023-05-07T07:36:53;98066.44;;;19.72;64.65
19884;BME280;10104;50.732;10.174;2023-05-07T07:39:15;98069.41;;;20.04;64.50
19884;BME280;10104;50.732;10.174;2023-05-07T07:41:36;98069.66;;;20.52;61.49
19884;BME280;10104;50.732;10.174;2023-05-07T07:43:58;98065.56;;;20.67;59.69
19884;BME280;10104;50.732;10.174;2023-05-07T07:46:19;98068.94;;;20.79;58.15
19884;BME280;10104;50.732;10.174;2023-05-07T07:48:41;98074.53;;;20.55;57.76
19884;BME280;10104;50.732;10.174;2023-05-07T07:51:02;98071.19;;;20.32;59.50
19884;BME280;10104;50.732;10.174;2023-05-07T07:53:24;98074.03;;;20.58;59.14
19884;BME280;10104;50.732;10.174;2023-05-07T07:55:46;98073.94;;;20.70;59.01
19884;BME280;10104;50.732;10.174;2023-05-07T07:58:08;98070.53;;;20.58;58.28
19884;BME280;10104;50.732;10.174;2023-05-07T08:00:29;98068.06;;;20.73;57.13
19884;BME280;10104;50.732;10.174;2023-05-07T08:02:51;98067.38;;;20.83;57.16
19884;BME280;10104;50.732;10.174;2023-05-07T08:05:12;98075.97;;;21.45;56.67
19884;BME280;10104;50.732;10.174;2023-05-07T08:07:34;98074.09;;;21.72;55.18
19884;BME280;10104;50.732;10.174;2023-05-07T08:09:55;98065.91;;;22.21;53.05
19884;BME280;10104;50.732;10.174;2023-05-07T08:12:17;98067.50;;;22.59;52.41
19884;BME280;10104;50.732;10.174;2023-05-07T08:14:38;98063.06;;;22.80;51.50
19884;BME280;10104;50.732;10.174;2023-05-07T08:17:00;98066.75;;;23.21;50.02
19884;BME280;10104;50.732;10.174;2023-05-07T08:19:22;98071.88;;;23.12;49.27
19884;BME280;10104;50.732;10.174;2023-05-07T08:21:43;98063.59;;;23.39;48.32
19884;BME280;10104;50.732;10.174;2023-05-07T08:24:05;98065.31;;;23.75;47.51
19884;BME280;10104;50.732;10.174;2023-05-07T08:26:27;98063.44;;;23.81;47.18
19884;BME280;10104;50.732;10.174;2023-05-07T08:28:48;98059.09;;;23.95;46.73
19884;BME280;10104;50.732;10.174;2023-05-07T08:31:10;98075.88;;;23.87;44.89
19884;BME280;10104;50.732;10.174;2023-05-07T08:33:32;98068.84;;;23.81;46.04
19884;BME280;10104;50.732;10.174;2023-05-07T08:35:53;98063.72;;;24.00;45.38
19884;BME280;10104;50.732;10.174;2023-05-07T08:38:15;98067.78;;;24.33;45.58
19884;BME280;10104;50.732;10.174;2023-05-07T08:40:37;98071.81;;;24.55;46.17
19884;BME280;10104;50.732;10.174;2023-05-07T08:43:00;98069.53;;;25.03;44.21
19884;BME280;10104;50.732;10.174;2023-05-07T08:45:23;98066.84;;;24.88;43.76
19884;BME280;10104;50.732;10.174;2023-05-07T08:47:50;98075.91;;;24.43;44.55
19884;BME280;10104;50.732;10.174;2023-05-07T08:50:13;98072.06;;;24.59;45.04
19884;BME280;10104;50.732;10.174;2023-05-07T08:52:35;98078.56;;;24.58;45.24
19884;BME280;10104;50.732;10.174;2023-05-07T08:54:56;98074.19;;;24.92;44.18
19884;BME280;10104;50.732;10.174;2023-05-07T08:57:18;98074.50;;;25.45;43.51
19884;BME280;10104;50.732;10.174;2023-05-07T08:59:41;98071.91;;;25.74;42.66
19884;BME280;10104;50.732;10.174;2023-05-07T09:02:03;98071.41;;;26.06;42.40
19884;BME280;10104;50.732;10.174;2023-05-07T09:04:28;98064.28;;;26.15;41.77
19884;BME280;10104;50.732;10.174;2023-05-07T09:06:49;98075.41;;;26.76;40.94
19884;BME280;10104;50.732;10.174;2023-05-07T09:09:14;98070.50;;;26.78;40.16
19884;BME280;10104;50.732;10.174;2023-05-07T09:11:38;98068.63;;;27.03;39.96
19884;BME280;10104;50.732;10.174;2023-05-07T09:14:00;98072.19;;;26.45;40.80
19884;BME280;10104;50.732;10.174;2023-05-07T09:16:26;98069.09;;;26.57;40.79
19884;BME280;10104;50.732;10.174;2023-05-07T09:18:51;98062.38;;;26.15;41.45
19884;BME280;10104;50.732;10.174;2023-05-07T09:21:17;98071.75;;;26.62;41.91
19884;BME280;10104;50.732;10.174;2023-05-07T09:23:39;98071.66;;;26.43;40.76
19884;BME280;10104;50.732;10.174;2023-05-07T09:26:01;98081.19;;;26.70;40.58
19884;BME280;10104;50.732;10.174;2023-05-07T09:28:23;98085.69;;;26.79;39.54
19884;BME280;10104;50.732;10.174;2023-05-07T09:30:44;98079.22;;;26.75;39.76
19884;BME280;10104;50.732;10.174;2023-05-07T09:33:06;98074.97;;;26.40;40.33
19884;BME280;10104;50.732;10.174;2023-05-07T09:35:28;98066.06;;;26.30;40.39
19884;BME280;10104;50.732;10.174;2023-05-07T09:37:50;98068.66;;;26.45;40.28
19884;BME280;10104;50.732;10.174;2023-05-07T09:40:29;98072.75;;;26.08;40.92
19884;BME280;10104;50.732;10.174;2023-05-07T09:42:50;98077.59;;;25.77;41.04
19884;BME280;10104;50.732;10.174;2023-05-07T09:45:12;98082.47;;;26.14;40.89
19884;BME280;10104;50.732;10.174;2023-05-07T09:47:38;98073.19;;;26.54;40.37
19884;BME280;10104;50.732;10.174;2023-05-07T09:50:04;98084.09;;;26.78;40.16
19884;BME280;10104;50.732;10.174;2023-05-07T09:52:27;98070.09;;;26.66;40.03
19884;BME280;10104;50.732;10.174;2023-05-07T09:54:54;98078.22;;;27.19;39.69
19884;BME280;10104;50.732;10.174;2023-05-07T09:57:19;98076.59;;;27.60;36.98
19884;BME280;10104;50.732;10.174;2023-05-07T09:59:42;98069.84;;;27.58;37.85
19884;BME280;10104;50.732;10.174;2023-05-07T10:02:04;98066.94;;;27.49;38.72
19884;BME280;10104;50.732;10.174;2023-05-07T10:04:27;98073.88;;;27.60;37.94
19884;BME280;10104;50.732;10.174;2023-05-07T10:06:49;98074.59;;;28.03;37.07
19884;BME280;10104;50.732;10.174;2023-05-07T10:09:12;98074.50;;;28.27;36.53
19884;BME280;10104;50.732;10.174;2023-05-07T10:11:35;98072.44;;;28.38;36.10
19884;BME280;10104;50.732;10.174;2023-05-07T10:13:57;98073.94;;;27.74;36.87
19884;BME280;10104;50.732;10.174;2023-05-07T10:16:19;98068.06;;;27.67;37.58
19884;BME280;10104;50.732;10.174;2023-05-07T10:18:41;98067.50;;;27.70;37.34
19884;BME280;10104;50.732;10.174;2023-05-07T10:21:13;98064.75;;;27.09;39.27
19884;BME280;10104;50.732;10.174;2023-05-07T10:23:38;98061.97;;;26.90;38.33
19884;BME280;10104;50.732;10.174;2023-05-07T10:26:03;98060.91;;;27.10;38.98
19884;BME280;10104;50.732;10.174;2023-05-07T10:28:25;98056.41;;;27.43;38.30
19884;BME280;10104;50.732;10.174;2023-05-07T10:30:58;98055.16;;;27.35;38.02
19884;BME280;10104;50.732;10.174;2023-05-07T10:33:26;98051.31;;;27.36;38.07
19884;BME280;10104;50.732;10.174;2023-05-07T10:35:48;98055.44;;;27.15;38.72
19884;BME280;10104;50.732;10.174;2023-05-07T10:38:10;98059.97;;;27.62;37.73
19884;BME280;10104;50.732;10.174;2023-05-07T10:40:32;98064.44;;;27.71;37.47
19884;BME280;10104;50.732;10.174;2023-05-07T10:42:59;98058.25;;;27.47;38.03
19884;BME280;10104;50.732;10.174;2023-05-07T10:45:22;98059.38;;;27.46;38.41
19884;BME280;10104;50.732;10.174;2023-05-07T10:48:09;98052.84;;;27.66;37.09
19884;BME280;10104;50.732;10.174;2023-05-07T10:51:18;98046.38;;;28.45;35.56
19884;BME280;10104;50.732;10.174;2023-05-07T10:53:41;98043.63;;;28.78;35.12
19884;BME280;10104;50.732;10.174;2023-05-07T10:56:24;98048.78;;;28.33;35.67
19884;BME280;10104;50.732;10.174;2023-05-07T10:58:46;98055.50;;;27.90;36.32
19884;BME280;10104;50.732;10.174;2023-05-07T11:01:07;98056.66;;;27.46;36.79
19884;BME280;10104;50.732;10.174;2023-05-07T11:03:29;98054.69;;;27.52;37.24
19884;BME280;10104;50.732;10.174;2023-05-07T11:06:14;98044.53;;;27.76;37.55
19884;BME280;10104;50.732;10.174;2023-05-07T11:08:55;98052.09;;;27.79;36.57
19884;BME280;10104;50.732;10.174;2023-05-07T11:11:17;98053.13;;;28.21;36.58
19884;BME280;10104;50.732;10.174;2023-05-07T11:13:48;98043.59;;;28.50;35.15
19884;BME280;10104;50.732;10.174;2023-05-07T11:16:22;98046.00;;;28.52;35.24
19884;BME280;10104;50.732;10.174;2023-05-07T11:18:55;98048.72;;;28.38;36.08
19884;BME280;10104;50.732;10.174;2023-05-07T11:21:46;98052.00;;;28.68;35.89
19884;BME280;10104;50.732;10.174;2023-05-07T11:24:08;98049.63;;;28.93;35.38
19884;BME280;10104;50.732;10.174;2023-05-07T11:26:45;98053.84;;;28.86;35.88
19884;BME280;10104;50.732;10.174;2023-05-07T11:29:18;98046.66;;;28.76;34.80
19884;BME280;10104;50.732;10.174;2023-05-07T11:31:43;98050.50;;;29.16;34.37
19884;BME280;10104;50.732;10.174;2023-05-07T11:34:05;98045.78;;;28.94;34.76
19884;BME280;10104;50.732;10.174;2023-05-07T11:36:31;98047.69;;;28.80;35.44
19884;BME280;10104;50.732;10.174;2023-05-07T11:38:53;98053.72;;;28.77;35.00
19884;BME280;10104;50.732;10.174;2023-05-07T11:41:16;98055.47;;;28.87;34.91
19884;BME280;10104;50.732;10.174;2023-05-07T11:43:37;98046.56;;;28.95;34.55
19884;BME280;10104;50.732;10.174;2023-05-07T11:46:12;98049.09;;;28.32;35.14
19884;BME280;10104;50.732;10.174;2023-05-07T11:48:33;98047.09;;;28.37;35.87
19884;BME280;10104;50.732;10.174;2023-05-07T11:53:20;98045.34;;;27.76;36.58
19884;BME280;10104;50.732;10.174;2023-05-07T11:55:46;98048.28;;;27.61;37.04
19884;BME280;10104;50.732;10.174;2023-05-07T11:58:10;98051.13;;;27.32;37.48
19884;BME280;10104;50.732;10.174;2023-05-07T12:00:32;98047.69;;;27.03;37.66
19884;BME280;10104;50.732;10.174;2023-05-07T12:02:53;98049.63;;;27.21;37.82
19884;BME280;10104;50.732;10.174;2023-05-07T12:05:15;98047.97;;;26.78;38.05
19884;BME280;10104;50.732;10.174;2023-05-07T12:07:37;98044.34;;;26.30;39.25
19884;BME280;10104;50.732;10.174;2023-05-07T12:09:59;98046.59;;;26.17;40.10
19884;BME280;10104;50.732;10.174;2023-05-07T12:12:20;98058.09;;;25.70;40.71
19884;BME280;10104;50.732;10.174;2023-05-07T12:14:43;98062.97;;;25.19;41.48
19884;BME280;10104;50.732;10.174;2023-05-07T12:17:07;98055.75;;;24.94;42.73
19884;BME280;10104;50.732;10.174;2023-05-07T12:19:30;98055.50;;;24.76;42.94
19884;BME280;10104;50.732;10.174;2023-05-07T12:21:52;98057.75;;;24.53;44.04
19884;BME280;10104;50.732;10.174;2023-05-07T12:24:14;98056.94;;;24.43;44.12
19884;BME280;10104;50.732;10.174;2023-05-07T12:26:39;98053.69;;;24.56;43.61
19884;BME280;10104;50.732;10.174;2023-05-07T12:29:02;98051.78;;;24.62;44.82